Whiteland, Indiana
Current Conditions -  °F | °C
As of 10:54 AM on Saturday 20 Dec 2014 (Local Time) from KIND Reporting Station
Haze Haze  
Wind Chill: 30°   Ceiling: 3000
Heat Index: 30°   Visibility: 6mi
Dew Point: 23°   Wind: 0mph
Humidity: 75%   Direction: NA
Pressure: 30.3"   Gusts: NA
Location:  39.55°N, 86.08°W
Report Text: KIND 201554Z 00000KT 6SM HZ OVC030 M01/M05 A3030 RMK AO2 SLP268 T10111050
Loading
Personal Weather Stations






























Interactive Weather Map New forecast layout! Learn more

10-Day Weather Forecast

Advertisements
Track Severe Weather on mobile